createdAt,value
2022-10-21T00:00:58.424Z,7.88
2022-10-21T00:03:28.825Z,8.13
2022-10-21T00:05:56.023Z,8.79
2022-10-21T00:08:22.971Z,6.82
2022-10-21T00:10:53.631Z,8.55
2022-10-21T00:13:20.606Z,8.69
2022-10-21T00:16:00.442Z,8.32
2022-10-21T00:18:30.395Z,8.61
2022-10-21T00:20:57.096Z,7.86
2022-10-21T00:23:23.748Z,8.20
2022-10-21T00:26:01.555Z,8.48
2022-10-21T00:28:31.441Z,8.31
2022-10-21T00:31:00.344Z,7.89
2022-10-21T00:33:30.620Z,8.26
2022-10-21T00:35:59.556Z,7.91
2022-10-21T00:38:29.023Z,7.04
2022-10-21T00:40:55.631Z,8.27
2022-10-21T00:43:25.671Z,8.33
2022-10-21T00:46:05.324Z,7.72
2022-10-21T00:48:38.979Z,8.30
2022-10-21T00:51:11.396Z,8.24
2022-10-21T00:53:41.225Z,7.31
2022-10-21T00:56:16.274Z,7.57
2022-10-21T00:58:43.870Z,7.83
2022-10-21T01:01:15.364Z,7.58
2022-10-21T01:03:49.444Z,7.53
2022-10-21T01:06:19.391Z,7.68
2022-10-21T01:08:46.131Z,7.35
2022-10-21T01:11:18.304Z,7.45
2022-10-21T01:14:20.254Z,7.86
2022-10-21T01:17:20.721Z,7.79
2022-10-21T01:19:55.105Z,7.78
2022-10-21T01:22:43.039Z,7.84
2022-10-21T01:25:32.819Z,7.45
2022-10-21T01:28:08.207Z,7.91
2022-10-21T01:31:13.101Z,7.93
2022-10-21T01:33:42.233Z,7.07
2022-10-21T01:36:13.232Z,6.99
2022-10-21T01:38:48.908Z,7.73
2022-10-21T01:41:24.149Z,7.91
2022-10-21T01:44:05.839Z,7.92
2022-10-21T01:47:00.949Z,7.85
2022-10-21T01:49:37.122Z,7.88
2022-10-21T01:52:09.926Z,7.27
2022-10-21T01:54:42.042Z,7.84
2022-10-21T01:57:09.138Z,7.20
2022-10-21T01:59:39.976Z,7.15
2022-10-21T02:02:07.950Z,7.82
2022-10-21T02:04:36.399Z,7.74
2022-10-21T02:07:03.412Z,7.19
2022-10-21T02:12:06.984Z,7.55
2022-10-21T02:14:37.783Z,7.65
2022-10-21T02:17:06.371Z,7.73
2022-10-21T02:19:33.213Z,7.78
2022-10-21T02:22:04.137Z,7.67
2022-10-21T02:25:10.587Z,7.55
2022-10-21T02:27:37.294Z,7.14
2022-10-21T02:30:06.703Z,7.37
2022-10-21T02:32:54.285Z,7.71
2022-10-21T02:35:29.171Z,7.70
2022-10-21T02:38:17.065Z,6.85
2022-10-21T02:40:49.543Z,7.65
2022-10-21T02:43:18.479Z,7.61
2022-10-21T02:45:48.964Z,7.58
2022-10-21T02:48:15.676Z,7.56
2022-10-21T02:50:44.739Z,7.35
2022-10-21T02:53:11.816Z,7.03
2022-10-21T02:55:38.494Z,6.93
2022-10-21T02:58:08.038Z,7.59
2022-10-21T03:00:36.979Z,7.15
2022-10-21T03:03:03.721Z,7.54
2022-10-21T03:08:04.679Z,6.96
2022-10-21T03:10:31.350Z,7.13
2022-10-21T03:13:03.059Z,6.79
2022-10-21T03:15:30.001Z,7.42
2022-10-21T03:17:59.199Z,7.19
2022-10-21T03:20:28.248Z,7.10
2022-10-21T03:22:57.635Z,6.23
2022-10-21T03:25:24.357Z,7.00
2022-10-21T03:27:53.456Z,6.97
2022-10-21T03:30:20.168Z,6.92
2022-10-21T03:32:49.106Z,7.62
2022-10-21T03:35:15.973Z,7.18
2022-10-21T03:37:42.811Z,7.49
2022-10-21T03:40:13.364Z,6.91
2022-10-21T03:42:40.660Z,7.59
2022-10-21T03:45:08.282Z,7.21
2022-10-21T03:47:35.043Z,7.25
2022-10-21T03:50:06.393Z,6.90
2022-10-21T03:52:35.904Z,7.19
2022-10-21T03:55:02.774Z,7.49
2022-10-21T03:57:29.443Z,7.10
2022-10-21T03:59:58.496Z,7.57
2022-10-21T04:02:25.227Z,6.93
2022-10-21T04:04:51.968Z,7.53
2022-10-21T04:07:18.677Z,7.08
2022-10-21T04:09:45.753Z,7.64
2022-10-21T04:12:14.714Z,7.20
2022-10-21T04:14:44.014Z,6.89
2022-10-21T04:17:10.717Z,7.62
2022-10-21T04:19:40.051Z,7.36
2022-10-21T04:22:09.571Z,7.65
2022-10-21T04:24:42.331Z,7.49
2022-10-21T04:27:15.739Z,7.18
2022-10-21T04:29:45.277Z,6.34
2022-10-21T04:32:16.537Z,7.30
2022-10-21T04:34:46.285Z,7.55
2022-10-21T04:37:15.763Z,6.99
2022-10-21T04:39:42.971Z,7.02
2022-10-21T04:42:09.856Z,7.43
2022-10-21T04:44:45.511Z,6.81
2022-10-21T04:47:18.645Z,7.56
2022-10-21T04:49:45.372Z,6.91
2022-10-21T04:52:12.171Z,6.97
2022-10-21T04:54:48.831Z,7.15
2022-10-21T04:57:20.668Z,4.99
2022-10-21T04:59:49.815Z,7.28
2022-10-21T05:02:22.946Z,6.91
2022-10-21T05:04:52.247Z,6.91
2022-10-21T05:07:21.128Z,7.06
2022-10-21T05:09:47.915Z,7.43
2022-10-21T05:12:16.872Z,7.25
2022-10-21T05:14:43.686Z,7.27
2022-10-21T05:17:10.624Z,7.16
2022-10-21T05:19:37.340Z,7.11
2022-10-21T05:22:04.360Z,7.22
2022-10-21T05:24:33.324Z,4.94
2022-10-21T05:27:03.333Z,5.93
2022-10-21T05:29:32.160Z,7.36
2022-10-21T05:31:58.927Z,7.60
2022-10-21T05:34:28.041Z,7.23
2022-10-21T05:36:54.770Z,7.35
2022-10-21T05:39:21.440Z,7.71
2022-10-21T05:41:48.345Z,7.71
2022-10-21T05:44:17.394Z,7.18
2022-10-21T05:46:44.171Z,6.56
2022-10-21T05:49:10.880Z,6.94
2022-10-21T05:51:39.784Z,7.43
2022-10-21T05:54:08.752Z,7.22
2022-10-21T05:56:35.503Z,6.47
2022-10-21T05:59:07.849Z,7.30
2022-10-21T06:01:39.657Z,7.31
2022-10-21T06:04:07.020Z,7.86
2022-10-21T06:06:33.738Z,7.94
2022-10-21T06:09:00.846Z,7.41
2022-10-21T06:11:27.542Z,7.93
2022-10-21T06:13:59.553Z,8.28
2022-10-21T06:16:28.740Z,8.40
2022-10-21T06:18:55.538Z,8.21
2022-10-21T06:21:24.606Z,8.11
2022-10-21T06:23:53.783Z,8.63
2022-10-21T06:26:23.377Z,8.37
2022-10-21T06:28:52.579Z,7.87
2022-10-21T06:31:26.069Z,8.12
2022-10-21T06:33:55.786Z,8.43
2022-10-21T06:36:22.491Z,9.07
2022-10-21T06:38:49.270Z,8.56
2022-10-21T06:41:18.742Z,8.93
2022-10-21T06:43:47.814Z,9.16
2022-10-21T06:46:17.704Z,8.69
2022-10-21T06:48:44.388Z,8.71
2022-10-21T06:51:15.449Z,9.36
2022-10-21T06:53:43.235Z,8.96
2022-10-21T06:56:13.510Z,8.89
2022-10-21T06:58:49.173Z,8.87
2022-10-21T07:01:35.238Z,9.57
2022-10-21T07:04:09.789Z,9.65
2022-10-21T07:06:36.927Z,9.74
2022-10-21T07:09:06.513Z,9.85
2022-10-21T07:11:33.315Z,9.51
2022-10-21T07:14:00.809Z,10.11
2022-10-21T07:16:29.874Z,9.89
2022-10-21T07:18:59.751Z,9.35
2022-10-21T07:21:31.311Z,10.41
2022-10-21T07:23:59.484Z,10.29
2022-10-21T07:26:30.783Z,10.58
2022-10-21T07:28:59.627Z,10.73
2022-10-21T07:31:32.090Z,10.59
2022-10-21T07:34:00.403Z,10.96
2022-10-21T07:36:33.002Z,10.22
2022-10-21T07:39:03.629Z,11.22
2022-10-21T07:41:39.605Z,11.31
2022-10-21T07:44:09.776Z,10.94
2022-10-21T07:46:38.909Z,11.50
2022-10-21T07:49:08.904Z,10.83
2022-10-21T07:51:38.168Z,11.54
2022-10-21T07:54:05.641Z,11.74
2022-10-21T07:56:34.949Z,11.72
2022-10-21T07:59:11.690Z,11.59
2022-10-21T08:01:40.541Z,11.07
2022-10-21T08:04:07.393Z,11.32
2022-10-21T08:06:34.408Z,11.13
2022-10-21T08:09:04.471Z,11.37
2022-10-21T08:11:34.971Z,11.32
2022-10-21T08:14:10.862Z,11.90
2022-10-21T08:16:38.058Z,11.73
2022-10-21T08:19:08.314Z,11.98
2022-10-21T08:21:37.402Z,12.06
2022-10-21T08:24:09.171Z,11.53
2022-10-21T08:26:36.159Z,12.29
2022-10-21T08:29:03.979Z,11.84
2022-10-21T08:31:31.568Z,10.56
2022-10-21T08:34:01.946Z,10.68
2022-10-21T08:36:29.697Z,11.61
2022-10-21T08:38:56.853Z,11.74
2022-10-21T08:41:33.144Z,12.93
2022-10-21T08:44:08.796Z,13.07
2022-10-21T08:46:48.084Z,12.39
2022-10-21T08:49:30.820Z,12.67
2022-10-21T08:52:37.931Z,11.55
2022-10-21T08:55:14.914Z,12.81
2022-10-21T08:57:42.157Z,11.95
2022-10-21T09:00:19.281Z,14.50
2022-10-21T09:03:10.770Z,14.16
2022-10-21T09:06:10.610Z,13.96
2022-10-21T09:09:08.300Z,14.26
2022-10-21T09:12:03.642Z,15.52
2022-10-21T09:14:51.784Z,15.76
2022-10-21T09:17:21.451Z,15.97
2022-10-21T09:20:09.546Z,16.07
2022-10-21T09:22:48.393Z,16.19
2022-10-21T09:25:18.480Z,16.27
2022-10-21T09:27:55.556Z,15.83
2022-10-21T09:30:23.733Z,15.88
2022-10-21T09:32:55.840Z,16.47
2022-10-21T09:35:39.499Z,16.59
2022-10-21T09:38:21.083Z,16.66
2022-10-21T09:40:50.149Z,16.30
2022-10-21T09:43:18.956Z,16.81
2022-10-21T09:45:46.457Z,16.58
2022-10-21T09:48:20.446Z,17.00
2022-10-21T09:50:50.250Z,16.11
2022-10-21T09:53:26.651Z,16.64
2022-10-21T09:56:02.407Z,16.22
2022-10-21T09:58:40.138Z,16.69
2022-10-21T10:01:06.836Z,16.22
2022-10-21T10:03:37.367Z,16.03
2022-10-21T10:06:05.567Z,15.96
2022-10-21T10:08:39.805Z,16.60
2022-10-21T10:11:11.893Z,16.64
2022-10-21T10:13:56.315Z,16.36
2022-10-21T10:16:22.995Z,16.52
2022-10-21T10:18:51.872Z,16.40
2022-10-21T10:21:22.664Z,16.60
2022-10-21T10:23:56.291Z,16.67
2022-10-21T10:26:28.589Z,16.59
2022-10-21T10:29:09.670Z,16.23
2022-10-21T10:31:39.617Z,16.70
2022-10-21T10:34:08.074Z,16.52
2022-10-21T10:36:39.090Z,15.74
2022-10-21T10:39:09.264Z,16.93
2022-10-21T10:41:40.157Z,17.41
2022-10-21T10:44:16.675Z,17.55
2022-10-21T10:49:22.806Z,17.64
2022-10-21T10:52:17.946Z,16.90
2022-10-21T10:54:44.688Z,17.24
2022-10-21T10:57:16.309Z,18.11
2022-10-21T10:59:51.362Z,17.88
2022-10-21T11:02:28.033Z,17.99
2022-10-21T11:05:26.929Z,18.36
2022-10-21T11:07:58.137Z,17.76
2022-10-21T11:10:36.510Z,17.96
2022-10-21T11:13:05.988Z,17.37
2022-10-21T11:15:49.721Z,17.02
2022-10-21T11:18:37.463Z,17.94
2022-10-21T11:21:14.290Z,17.75
2022-10-21T11:24:05.919Z,17.94
2022-10-21T11:26:45.954Z,17.48
2022-10-21T11:29:55.815Z,17.85
2022-10-21T11:32:49.853Z,17.82
2022-10-21T11:35:45.201Z,17.69
2022-10-21T11:38:16.133Z,17.60
2022-10-21T11:40:50.727Z,17.50
2022-10-21T11:43:26.361Z,17.44
2022-10-21T11:46:14.112Z,17.40
2022-10-21T11:48:47.028Z,17.39
2022-10-21T11:51:19.580Z,16.97
2022-10-21T11:54:26.017Z,17.44
2022-10-21T11:57:04.779Z,17.15
2022-10-21T11:59:54.093Z,17.44
2022-10-21T12:02:42.762Z,16.60
2022-10-21T12:05:16.087Z,17.30
2022-10-21T12:08:06.169Z,16.93
2022-10-21T12:10:51.983Z,17.29
2022-10-21T12:13:21.561Z,17.33
2022-10-21T12:15:54.445Z,16.95
2022-10-21T12:18:24.007Z,17.32
2022-10-21T12:20:53.545Z,17.30
2022-10-21T12:23:22.509Z,16.95
2022-10-21T12:26:22.608Z,17.31
2022-10-21T12:29:01.387Z,17.29
2022-10-21T12:31:50.274Z,17.25
2022-10-21T12:34:19.759Z,17.17
2022-10-21T12:36:50.909Z,16.84
2022-10-21T12:39:50.473Z,17.04
2022-10-21T12:42:28.692Z,16.95
2022-10-21T12:44:55.414Z,16.93
2022-10-21T12:47:22.060Z,16.71
2022-10-21T12:50:14.827Z,15.75
2022-10-21T12:52:42.309Z,15.47
2022-10-21T12:55:23.564Z,16.17
2022-10-21T12:57:59.203Z,16.64
2022-10-21T13:00:31.430Z,16.63
2022-10-21T13:03:12.845Z,16.59
2022-10-21T13:05:39.502Z,16.51
2022-10-21T13:08:21.951Z,16.40
2022-10-21T13:11:06.822Z,16.23
2022-10-21T13:13:38.533Z,16.43
2022-10-21T13:16:20.203Z,16.46
2022-10-21T13:19:16.191Z,16.30
2022-10-21T13:21:44.094Z,16.45
2022-10-21T13:24:15.820Z,16.47
2022-10-21T13:26:48.029Z,16.48
2022-10-21T13:29:37.524Z,16.48
2022-10-21T13:32:19.474Z,16.11
2022-10-21T13:35:14.536Z,16.46
2022-10-21T13:37:43.457Z,16.30
2022-10-21T13:40:18.743Z,15.70
2022-10-21T13:42:49.681Z,16.30
2022-10-21T13:45:31.719Z,16.47
2022-10-21T13:48:15.326Z,16.36
2022-10-21T13:50:45.037Z,16.42
2022-10-21T13:53:17.794Z,16.54
2022-10-21T13:56:43.328Z,16.58
2022-10-21T13:59:28.896Z,15.91
2022-10-21T14:01:58.886Z,15.50
2022-10-21T14:04:40.247Z,16.56
2022-10-21T14:07:17.182Z,16.02
2022-10-21T14:09:57.010Z,16.45
2022-10-21T14:12:29.756Z,16.43
2022-10-21T14:15:04.091Z,15.59
2022-10-21T14:17:32.410Z,15.65
2022-10-21T14:20:06.250Z,16.44
2022-10-21T14:22:33.224Z,15.53
2022-10-21T14:25:04.299Z,15.55
2022-10-21T14:27:35.079Z,15.48
2022-10-21T14:30:04.399Z,16.35
2022-10-21T14:32:33.339Z,16.34
2022-10-21T14:35:09.428Z,16.33
2022-10-21T14:37:49.176Z,16.31
2022-10-21T14:40:37.165Z,16.28
2022-10-21T14:43:18.536Z,15.68
2022-10-21T14:45:48.207Z,16.12
2022-10-21T14:48:32.490Z,15.57
2022-10-21T14:51:01.872Z,15.16
2022-10-21T14:53:34.770Z,14.79
2022-10-21T14:56:04.495Z,15.90
2022-10-21T14:58:38.272Z,15.41
2022-10-21T15:01:19.081Z,15.32
2022-10-21T15:03:57.281Z,15.79
2022-10-21T15:06:28.242Z,15.75
2022-10-21T15:09:00.319Z,15.69
2022-10-21T15:11:29.991Z,15.65
2022-10-21T15:14:08.229Z,15.55
2022-10-21T15:19:08.798Z,14.29
2022-10-21T15:22:02.103Z,14.11
2022-10-21T15:24:41.960Z,15.24
2022-10-21T15:27:42.133Z,15.03
2022-10-21T15:30:20.724Z,15.12
2022-10-21T15:32:49.157Z,14.12
2022-10-21T15:35:20.811Z,15.11
2022-10-21T15:37:53.787Z,14.66
2022-10-21T15:40:21.637Z,14.91
2022-10-21T15:42:48.654Z,14.31
2022-10-21T15:45:16.029Z,14.86
2022-10-21T15:47:42.722Z,14.20
2022-10-21T15:50:22.844Z,14.87
2022-10-21T15:52:49.610Z,14.07
2022-10-21T15:55:18.584Z,13.86
2022-10-21T15:57:48.007Z,14.30
2022-10-21T16:00:19.232Z,14.42
2022-10-21T16:02:49.656Z,14.52
2022-10-21T16:05:16.761Z,14.57
2022-10-21T16:07:44.373Z,13.99
2022-10-21T16:10:20.936Z,14.39
2022-10-21T16:12:57.419Z,13.77
2022-10-21T16:15:25.007Z,14.05
2022-10-21T16:17:56.125Z,14.12
2022-10-21T16:20:25.833Z,13.56
2022-10-21T16:22:52.896Z,13.37
2022-10-21T16:25:22.119Z,13.99
2022-10-21T16:27:56.270Z,13.42
2022-10-21T16:30:33.848Z,13.21
2022-10-21T16:33:02.751Z,12.72
2022-10-21T16:35:34.243Z,12.48
2022-10-21T16:38:00.946Z,13.69
2022-10-21T16:40:35.380Z,13.47
2022-10-21T16:43:04.472Z,12.68
2022-10-21T16:45:35.043Z,13.07
2022-10-21T16:48:04.599Z,13.49
2022-10-21T16:50:39.789Z,12.16
2022-10-21T16:53:16.929Z,12.55
2022-10-21T16:55:43.875Z,12.57
2022-10-21T16:58:13.067Z,13.32
2022-10-21T17:00:41.155Z,13.18
2022-10-21T17:03:11.394Z,12.19
2022-10-21T17:05:42.641Z,13.31
2022-10-21T17:08:09.719Z,12.59
2022-10-21T17:10:36.528Z,12.36
2022-10-21T17:13:03.240Z,13.02
2022-10-21T17:15:29.962Z,13.07
2022-10-21T17:17:56.648Z,12.29
2022-10-21T17:20:23.391Z,11.87
2022-10-21T17:22:50.106Z,12.72
2022-10-21T17:25:17.470Z,12.37
2022-10-21T17:27:44.485Z,12.72
2022-10-21T17:30:12.382Z,13.07
2022-10-21T17:32:39.135Z,12.71
2022-10-21T17:35:11.371Z,12.07
2022-10-21T17:37:38.362Z,12.76
2022-10-21T17:40:08.399Z,12.62
2022-10-21T17:42:35.256Z,12.54
2022-10-21T17:45:03.881Z,12.47
2022-10-21T17:47:30.841Z,12.30
2022-10-21T17:49:57.525Z,11.59
2022-10-21T17:52:24.697Z,12.85
2022-10-21T17:54:55.715Z,11.87
2022-10-21T17:57:27.339Z,11.66
2022-10-21T17:59:56.087Z,11.11
2022-10-21T18:02:33.450Z,12.15
2022-10-21T18:05:00.811Z,11.71
2022-10-21T18:07:31.034Z,12.45
2022-10-21T18:10:02.920Z,12.47
2022-10-21T18:12:34.387Z,12.46
2022-10-21T18:15:01.547Z,12.11
2022-10-21T18:17:34.626Z,11.87
2022-10-21T18:20:01.394Z,12.48
2022-10-21T18:22:28.068Z,11.98
2022-10-21T18:24:54.809Z,11.53
2022-10-21T18:27:21.525Z,11.76
2022-10-21T18:29:50.376Z,11.67
2022-10-21T18:32:17.051Z,12.43
2022-10-21T18:34:46.325Z,12.43
2022-10-21T18:37:15.425Z,12.27
2022-10-21T18:39:44.339Z,11.65
2022-10-21T18:42:11.013Z,11.77
2022-10-21T18:44:37.846Z,11.80
2022-10-21T18:47:08.067Z,11.52
2022-10-21T18:49:34.867Z,12.51
2022-10-21T18:52:04.128Z,11.94
2022-10-21T18:54:33.137Z,11.87
2022-10-21T18:57:02.474Z,11.38
2022-10-21T18:59:29.244Z,12.43
2022-10-21T19:01:56.054Z,11.93
2022-10-21T19:04:22.848Z,11.92
2022-10-21T19:06:52.887Z,11.61
2022-10-21T19:09:25.790Z,11.51
2022-10-21T19:11:53.855Z,11.45
2022-10-21T19:14:23.428Z,11.77
2022-10-21T19:16:52.459Z,11.39
2022-10-21T19:19:19.740Z,11.12
2022-10-21T19:21:48.830Z,11.70
2022-10-21T19:24:15.576Z,11.63
2022-10-21T19:26:46.371Z,12.18
2022-10-21T19:29:18.147Z,12.12
2022-10-21T19:31:48.402Z,11.91
2022-10-21T19:34:22.931Z,12.14
2022-10-21T19:36:54.479Z,12.15
2022-10-21T19:39:26.014Z,11.48
2022-10-21T19:41:55.918Z,12.01
2022-10-21T19:44:24.840Z,11.75
2022-10-21T19:46:53.738Z,11.70
2022-10-21T19:49:20.707Z,12.08
2022-10-21T19:51:49.888Z,11.00
2022-10-21T19:54:16.610Z,11.33
2022-10-21T19:56:47.880Z,11.26
2022-10-21T20:01:44.994Z,11.98
2022-10-21T20:04:15.730Z,11.36
2022-10-21T20:06:48.000Z,11.99
2022-10-21T20:09:16.949Z,11.24
2022-10-21T20:11:43.780Z,11.60
2022-10-21T20:14:24.504Z,11.40
2022-10-21T20:16:53.512Z,12.04
2022-10-21T20:19:20.569Z,12.23
2022-10-21T20:21:48.971Z,11.73
2022-10-21T20:24:18.229Z,11.09
2022-10-21T20:26:49.053Z,10.81
2022-10-21T20:29:20.897Z,11.55
2022-10-21T20:31:48.995Z,11.79
2022-10-21T20:34:15.757Z,11.67
2022-10-21T20:36:42.528Z,12.06
2022-10-21T20:39:11.876Z,12.45
2022-10-21T20:41:38.700Z,11.48
2022-10-21T20:44:10.464Z,11.71
2022-10-21T20:46:37.363Z,12.24
2022-10-21T20:49:05.757Z,12.67
2022-10-21T20:51:36.490Z,12.15
2022-10-21T20:54:12.317Z,12.21
2022-10-21T20:56:40.166Z,13.05
2022-10-21T20:59:10.484Z,13.14
2022-10-21T21:01:41.829Z,13.22
2022-10-21T21:04:12.393Z,12.60
2022-10-21T21:06:46.788Z,12.85
2022-10-21T21:09:33.567Z,13.33
2022-10-21T21:12:03.464Z,13.37
2022-10-21T21:14:30.876Z,12.96
2022-10-21T21:17:00.015Z,12.65
2022-10-21T21:19:27.091Z,12.44
2022-10-21T21:21:56.231Z,13.56
2022-10-21T21:24:25.384Z,13.01
2022-10-21T21:26:54.411Z,12.47
2022-10-21T21:29:21.064Z,13.01
2022-10-21T21:31:47.775Z,12.72
2022-10-21T21:34:14.507Z,12.52
2022-10-21T21:36:41.182Z,12.74
2022-10-21T21:39:08.797Z,13.54
2022-10-21T21:41:38.146Z,12.61
2022-10-21T21:44:05.448Z,12.53
2022-10-21T21:46:32.142Z,12.89
2022-10-21T21:49:05.520Z,13.42
2022-10-21T21:51:36.370Z,12.76
2022-10-21T21:54:04.669Z,12.90
2022-10-21T21:56:35.970Z,13.60
2022-10-21T21:59:04.956Z,12.41
2022-10-21T22:01:33.854Z,13.47
2022-10-21T22:04:03.419Z,11.77
2022-10-21T22:06:34.316Z,12.91
2022-10-21T22:09:01.703Z,13.07
2022-10-21T22:11:31.074Z,13.24
2022-10-21T22:14:00.588Z,12.69
2022-10-21T22:16:30.304Z,13.36
2022-10-21T22:18:59.864Z,13.85
2022-10-21T22:21:30.733Z,13.87
2022-10-21T22:23:58.079Z,12.65
2022-10-21T22:26:30.021Z,13.23
2022-10-21T22:29:04.087Z,13.74
2022-10-21T22:31:31.092Z,13.86
2022-10-21T22:34:01.351Z,13.82
2022-10-21T22:36:32.982Z,13.27
2022-10-21T22:38:59.823Z,12.91
2022-10-21T22:41:27.075Z,13.83
2022-10-21T22:43:53.823Z,13.03
2022-10-21T22:46:34.170Z,13.11
2022-10-21T22:49:05.006Z,13.23
2022-10-21T22:51:34.961Z,13.09
2022-10-21T22:54:15.114Z,13.30
2022-10-21T22:56:46.120Z,12.85
2022-10-21T22:59:13.228Z,13.52
2022-10-21T23:01:42.201Z,13.03
2022-10-21T23:04:11.406Z,13.20
2022-10-21T23:06:38.175Z,13.24
2022-10-21T23:09:05.561Z,13.21
2022-10-21T23:11:34.887Z,13.10
2022-10-21T23:14:07.804Z,13.10
2022-10-21T23:16:38.304Z,12.80
2022-10-21T23:19:07.923Z,13.57
2022-10-21T23:21:38.236Z,13.31
2022-10-21T23:24:05.871Z,12.37
2022-10-21T23:26:32.703Z,13.62
2022-10-21T23:28:59.457Z,12.79
2022-10-21T23:31:28.480Z,13.00
2022-10-21T23:33:55.240Z,13.44
2022-10-21T23:36:24.144Z,12.72
2022-10-21T23:38:56.594Z,12.61
2022-10-21T23:41:23.679Z,13.63
2022-10-21T23:43:52.581Z,12.96
2022-10-21T23:46:19.496Z,13.18
2022-10-21T23:48:48.389Z,13.07
2022-10-21T23:51:15.100Z,13.79
2022-10-21T23:53:44.068Z,13.09
2022-10-21T23:56:10.802Z,13.01
2022-10-21T23:58:40.402Z,13.72
